ADDS METAR Data INFO
IDs: Format: Raw Decoded Include TAF

Data at: 1611 UTC 14 Aug 2018

KORE 141604Z AUTO 17007KT 130V200 10SM BKN024 27/21 A2989 RMK AO2 LTG DSNT S AND SW T02720206
KORE 141552Z AUTO 15005KT 10SM SCT022 SCT028 BKN038 27/21 A2990 RMK AO2 LTG DSNT S SLP122 T02670206
KORE 141452Z AUTO VRB04KT 10SM SCT017 26/21 A2992 RMK AO2 SLP129 T02610211 58005
KORE 141429Z AUTO 17007KT 10SM FEW019 SCT027 BKN041 25/21 A2993 RMK AO2 T02500206
KORE 141352Z AUTO 17005KT 10SM FEW010 BKN015 OVC028 24/21 A2993 RMK AO2 SLP132 T02440206
KORE 141345Z AUTO 15007KT 10SM FEW010 BKN025 OVC031 25/21 A2993 RMK AO2 T02500206
KORE 141320Z AUTO 13003KT 10SM FEW011 OVC031 24/21 A2993 RMK AO2 T02390211
KORE 141303Z AUTO 16003KT 10SM SCT011 BKN028 OVC034 23/21 A2993 RMK AO2 T02330211
KORE 141252Z AUTO 00000KT 10SM BKN011 BKN016 OVC036 23/21 A2993 RMK AO2 SLP134 T02330211
KORE 141222Z AUTO 00000KT 10SM BKN012 OVC033 23/21 A2994 RMK AO2 T02280211
KORE 141155Z AUTO 00000KT 10SM SCT012 OVC032 22/21 A2994 RMK AO2 T02220206
KORE 141152Z AUTO 00000KT 10SM BKN012 BKN019 OVC034 22/21 A2994 RMK AO2 SLP134 70033 T02220206 10222 20211 53007
KORE 141052Z AUTO 00000KT 10SM SCT009 BKN013 OVC032 22/21 A2993 RMK AO2 SLP131 T02170206
KORE 140952Z AUTO 00000KT 10SM OVC013 21/20 A2991 RMK AO2 SLP127 T02110200
KORE 140934Z AUTO 00000KT 10SM FEW009 OVC013 22/20 A2991 RMK AO2 T02170200
KORE 140852Z AUTO 00000KT 10SM OVC008 21/20 A2991 RMK AO2 SLP127 T02110200 56009
KORE 140752Z AUTO 00000KT 10SM OVC007 21/20 A2992 RMK AO2 SLP129 T02110200
KORE 140652Z AUTO 00000KT 10SM OVC008 21/20 A2993 RMK AO2 SLP134 T02110200
KORE 140618Z AUTO 31003KT 10SM OVC009 21/20 A2993 RMK AO2 T02110200
KORE 140552Z AUTO 00000KT 10SM OVC010 21/20 A2994 RMK AO2 SLP137 60016 T02110200 10228 20211 58008
KORE 140518Z AUTO 00000KT 10SM BKN014 OVC019 21/20 A2996 RMK AO2 T02110200
KORE 140452Z AUTO 33003KT 10SM FEW014 SCT020 OVC027 21/20 A2996 RMK AO2 SLP142 T02110200 402330206
KORE 140352Z AUTO 00000KT 10SM FEW011 BKN025 OVC029 22/20 A2996 RMK AO2 RAB07E26 SLP144 P0001 T02170200
KORE 140330Z AUTO VRB03KT 10SM SCT011 SCT018 OVC025 22/20 A2996 RMK AO2 RAB07E26 P0001 T02170200
KORE 140252Z AUTO 00000KT 10SM OVC013 22/20 A2997 RMK AO2 RAE52 SLP145 P0006 60015 T02170200 56005
KORE 140221Z AUTO 00000KT 5SM -RA BR SCT009 BKN013 OVC031 21/20 A2997 RMK AO2 P0006 T02110200
KORE 140214Z AUTO 00000KT 6SM -RA BR BKN009 BKN013 OVC031 21/20 A2997 RMK AO2 P0005 T02110200
KORE 140207Z AUTO VRB03KT 4SM -RA BR BKN011 BKN029 OVC040 21/20 A2997 RMK AO2 P0005 T02110200
KORE 140152Z AUTO 04005KT 7SM -RA SCT010 BKN033 OVC049 22/20 A2997 RMK AO2 RAB08 SLP147 P0009 T02170200
KORE 140147Z AUTO 05005KT 4SM -RA BR FEW008 BKN038 OVC047 21/20 A2997 RMK AO2 RAB08 P0008
KORE 140126Z AUTO VRB04KT 3SM -RA BR SCT009 BKN013 OVC049 21/20 A2998 RMK AO2 RAB08 P0006 T02110200
KORE 140052Z AUTO 06005KT 10SM OVC010 22/20 A2998 RMK AO2 SLP150 T02170200
KORE 132352Z AUTO 07005KT 10SM OVC011 22/20 A2998 RMK AO2 RAE05B39E48 SLP149 P0000 60017 T02170200 10233 20217 56013
KORE 132252Z AUTO 03004KT 10SM -RA OVC014 22/21 A2998 RMK AO2 SLP150 P0011 T02170206
KORE 132215Z AUTO 36005KT 4SM RA BR BKN012 OVC017 22/21 A2999 RMK AO2 P0009 T02170206
KORE 132204Z AUTO 36003KT 2 1/2SM +RA BR BKN012 OVC017 22/21 A3000 RMK AO2 P0006 T02170206
KORE 132152Z AUTO 03003KT 3SM RA BR OVC012 22/20 A3000 RMK AO2 SLP158 P0005 T02220200
KORE 132052Z AUTO 04007KT 10SM -RA OVC013 23/20 A3002 RMK AO2 SLP162 P0001 60001 T02280200 58017
KORE 131952Z AUTO 07005KT 10SM -RA OVC014 23/20 A3003 RMK AO2 RAE16B36 SLP168 P0000 T02280200
KORE 131852Z AUTO 07006KT 10SM -RA OVC013 23/19 A3005 RMK AO2 RAB52 SLP174 P0000 T02280194
KORE 131752Z AUTO 04005KT 10SM OVC013 23/19 A3007 RMK AO2 SLP179 60000 T02280194 10228 20211 56015
KORE 131652Z AUTO VRB04KT 10SM OVC011 23/19 A3008 RMK AO2 SLP184 T02280194
KORE 131552Z AUTO 04006KT 10SM OVC010 22/19 A3009 RMK AO2 SLP188 T02220194
KORE 131519Z AUTO 05007KT 10SM OVC010 22/19 A3010 RMK AO2 T02220194
KORE 131506Z AUTO 02006KT 10SM OVC009 22/19 A3011 RMK AO2 T02220194
KORE 131452Z AUTO 04004KT 10SM OVC010 22/19 A3011 RMK AO2 SLP194 60000 T02220194 58002
KORE 131352Z AUTO 05006KT 10SM OVC011 22/19 A3011 RMK AO2 SLP195 T02220189
KORE 131252Z AUTO 04007KT 10SM OVC010 22/19 A3011 RMK AO2 RAB30E37 SLP195 P0000 T02170189
KORE 131152Z AUTO 04004KT 10SM OVC007 21/19 A3012 RMK AO2 SLP196 T02110189 10211 20206 53002
KORE 131052Z AUTO 03003KT 10SM OVC006 21/19 A3011 RMK AO2 SLP195 T02110189
KORE 130952Z AUTO 02004KT 10SM OVC007 21/19 A3011 RMK AO2 SLP194 T02110189
KORE 130852Z AUTO 36003KT 10SM OVC006 21/19 A3011 RMK AO2 SLP194 T02110189 56008
KORE 130752Z AUTO 01004KT 10SM OVC007 21/19 A3011 RMK AO2 SLP195 T02110194
KORE 130652Z AUTO 31003KT 10SM OVC006 21/19 A3012 RMK AO2 CIG 005V009 SLP198 T02060194
KORE 130552Z AUTO 36004KT 10SM OVC006 21/19 A3013 RMK AO2 SLP202 T02110194 10217 20206 58003
KORE 130452Z AUTO 33004KT 10SM OVC008 21/19 A3016 RMK AO2 SLP209 T02110194 402390189